Time;durP1;ratioP1;P1;durP2;ratioP2;P2;SDS_P1;SDS_P2;PMS_P1;PMS_P2;Temp;Humidity;BMP_temperature;BMP_pressure;BME280_temperature;BME280_humidity;BME280_pressure;Samples;Min_cycle;Max_cycle;Signal;HPM_P1;HPM_P2
2023/11/13 00:02:06;;;;;;;15.47;13.03;;;6.40;99.90;;;;;;5031426;28;20856;-72
2023/11/13 00:04:32;;;;;;;13.10;11.80;;;6.40;99.90;;;;;;5037691;28;20482;-71
2023/11/13 00:06:57;;;;;;;13.80;12.30;;;6.40;99.90;;;;;;5051903;28;20427;-72
2023/11/13 00:09:24;;;;;;;13.40;11.43;;;6.40;99.90;;;;;;5045958;28;20198;-72
2023/11/13 00:11:49;;;;;;;12.43;11.20;;;6.40;99.90;;;;;;5026346;28;20178;-72
2023/11/13 00:14:15;;;;;;;13.57;10.13;;;6.30;99.90;;;;;;5041192;28;20454;-72
2023/11/13 00:16:40;;;;;;;11.90;10.53;;;6.30;99.90;;;;;;5033002;28;20193;-72
2023/11/13 00:19:06;;;;;;;13.10;10.20;;;6.30;99.90;;;;;;5031783;28;20238;-72
2023/11/13 00:21:32;;;;;;;13.40;9.93;;;6.30;99.90;;;;;;5038565;28;20644;-72
2023/11/13 00:24:00;;;;;;;12.43;9.50;;;6.30;99.90;;;;;;5029895;28;20214;-72
2023/11/13 00:26:26;;;;;;;10.17;8.90;;;6.30;99.90;;;;;;5034005;28;20713;-71
2023/11/13 00:28:52;;;;;;;13.37;10.40;;;6.30;99.90;;;;;;5042469;28;20443;-72
2023/11/13 00:31:18;;;;;;;11.63;9.80;;;6.30;99.90;;;;;;5041552;28;20559;-71
2023/11/13 00:33:44;;;;;;;10.70;9.43;;;6.30;99.90;;;;;;5037968;28;20189;-72
2023/11/13 01:25:03;;;;;;;16.03;14.03;;;6.60;99.90;;;;;;4962907;28;1221567;-76
2023/11/13 01:27:28;;;;;;;16.43;13.53;;;6.60;99.90;;;;;;4920507;28;20507;-77
2023/11/13 01:29:54;;;;;;;19.13;14.97;;;6.70;99.90;;;;;;4883060;24;20492;-72
2023/11/13 01:32:19;;;;;;;16.60;13.63;;;6.70;99.90;;;;;;4856570;29;20191;-71
2023/11/13 01:34:45;;;;;;;18.23;13.10;;;6.80;99.90;;;;;;4856696;29;20558;-72
2023/11/13 01:37:11;;;;;;;14.37;12.53;;;6.80;99.90;;;;;;4852961;29;20664;-71
2023/11/13 01:39:37;;;;;;;14.20;11.90;;;6.90;99.90;;;;;;4856324;29;20536;-72
2023/11/13 01:42:03;;;;;;;15.83;13.57;;;6.90;99.90;;;;;;4856093;29;20883;-71
2023/11/13 01:44:28;;;;;;;16.27;13.47;;;7.00;99.90;;;;;;4852193;29;20199;-71
2023/11/13 01:46:54;;;;;;;15.30;12.83;;;7.00;99.90;;;;;;4854220;29;20212;-72
2023/11/13 01:49:21;;;;;;;16.30;13.47;;;7.00;99.90;;;;;;4856348;29;20193;-72
2023/11/13 01:51:48;;;;;;;16.90;13.53;;;7.00;99.90;;;;;;4856541;29;20203;-71
2023/11/13 01:54:15;;;;;;;15.20;12.93;;;7.00;99.90;;;;;;4855293;29;20468;-71
2023/11/13 01:56:43;;;;;;;17.67;13.27;;;7.10;99.90;;;;;;4854705;29;20445;-71
2023/11/13 01:59:12;;;;;;;16.00;12.50;;;7.10;99.90;;;;;;4855971;29;20882;-72
2023/11/13 02:01:38;;;;;;;14.47;12.87;;;7.10;99.90;;;;;;4856257;29;20469;-71
2023/11/13 02:04:03;;;;;;;13.67;11.50;;;7.10;99.90;;;;;;4852014;29;20473;-71
2023/11/13 02:06:30;;;;;;;13.00;11.50;;;7.10;99.90;;;;;;4851812;29;20508;-72
2023/11/13 02:08:56;;;;;;;12.77;11.40;;;7.10;99.90;;;;;;4855980;29;20220;-71
2023/11/13 02:11:22;;;;;;;14.40;11.70;;;7.10;99.90;;;;;;4851877;29;20445;-72
2023/11/13 02:13:49;;;;;;;13.60;11.07;;;7.10;99.90;;;;;;4856134;29;20210;-71
2023/11/13 02:16:14;;;;;;;13.23;11.40;;;7.00;99.90;;;;;;4853612;29;20456;-71
2023/11/13 02:18:41;;;;;;;12.80;10.93;;;6.90;99.90;;;;;;4842802;29;20437;-71
2023/11/13 02:21:07;;;;;;;13.03;11.30;;;7.00;99.90;;;;;;4842545;29;20688;-71
2023/11/13 02:23:32;;;;;;;14.83;11.97;;;7.00;99.90;;;;;;4845091;29;20459;-70
2023/11/13 02:26:01;;;;;;;16.50;13.10;;;7.00;99.90;;;;;;4855646;29;20215;-71
2023/11/13 02:28:27;;;;;;;16.23;12.63;;;7.00;99.90;;;;;;4929370;29;20673;-70
2023/11/13 02:30:53;;;;;;;15.60;12.23;;;7.00;99.90;;;;;;4941932;28;20499;-70
2023/11/13 02:33:18;;;;;;;15.07;13.47;;;6.90;99.90;;;;;;4951593;28;20166;-71
2023/11/13 02:35:46;;;;;;;16.80;15.00;;;6.90;99.90;;;;;;4947679;28;20436;-71
2023/11/13 02:38:11;;;;;;;16.60;13.90;;;6.80;99.90;;;;;;4949751;28;20196;-71
2023/11/13 02:40:37;;;;;;;18.97;14.60;;;6.80;99.90;;;;;;4944733;28;20460;-71
2023/11/13 02:43:02;;;;;;;17.37;13.00;;;6.80;99.90;;;;;;4946253;29;20558;-71
2023/11/13 02:45:28;;;;;;;14.50;12.30;;;6.80;99.90;;;;;;4946127;28;20200;-72
2023/11/13 02:47:54;;;;;;;18.83;13.27;;;6.90;99.90;;;;;;4938351;28;20262;-70
2023/11/13 02:50:20;;;;;;;17.23;12.40;;;6.90;99.90;;;;;;4951647;28;20205;-71
2023/11/13 02:52:47;;;;;;;21.87;13.73;;;6.90;99.90;;;;;;4946798;29;20820;-71
2023/11/13 02:55:12;;;;;;;14.80;12.40;;;7.00;99.90;;;;;;4946129;28;20445;-71
2023/11/13 02:57:38;;;;;;;13.67;11.87;;;7.00;99.90;;;;;;4948588;28;20440;-71
2023/11/13 03:00:11;;;;;;;16.10;11.73;;;7.00;99.90;;;;;;4943778;28;20213;-71
2023/11/13 03:02:37;;;;;;;15.00;11.50;;;7.10;99.90;;;;;;4946448;29;20189;-71
2023/11/13 03:05:03;;;;;;;11.83;9.40;;;7.10;99.90;;;;;;4943369;28;20451;-71
2023/11/13 03:07:29;;;;;;;12.27;10.97;;;7.20;99.90;;;;;;4947868;28;20444;-71
2023/11/13 03:09:54;;;;;;;11.60;8.80;;;7.30;99.90;;;;;;4940853;29;20198;-71
2023/11/13 03:12:23;;;;;;;9.43;7.23;;;7.30;99.90;;;;;;4950881;29;20798;-71
2023/11/13 03:14:49;;;;;;;10.47;8.30;;;7.40;99.90;;;;;;4945454;28;20524;-71
2023/11/13 03:17:16;;;;;;;9.10;7.13;;;7.50;99.90;;;;;;4939095;28;20822;-71
2023/11/13 03:19:42;;;;;;;11.60;7.80;;;7.60;99.90;;;;;;4948367;28;20464;-71
2023/11/13 03:22:08;;;;;;;7.83;6.20;;;7.70;99.90;;;;;;4940767;28;20803;-71
2023/11/13 03:24:34;;;;;;;9.50;5.30;;;7.80;99.90;;;;;;4951822;29;20433;-71
2023/11/13 03:26:59;;;;;;;11.90;4.90;;;8.00;99.90;;;;;;4940827;28;20221;-70
2023/11/13 03:29:25;;;;;;;6.97;4.70;;;8.20;99.90;;;;;;4924436;29;20209;-71
2023/11/13 03:31:51;;;;;;;5.57;4.73;;;8.30;99.90;;;;;;4931045;29;20559;-71
2023/11/13 03:34:17;;;;;;;5.80;4.17;;;8.40;99.90;;;;;;4931329;29;20558;-71
2023/11/13 03:36:43;;;;;;;4.57;3.13;;;8.50;99.90;;;;;;4927711;29;20437;-71
2023/11/13 03:39:10;;;;;;;8.13;3.67;;;8.60;99.90;;;;;;4925847;29;20560;-71
2023/11/13 03:41:36;;;;;;;5.63;3.50;;;8.80;99.90;;;;;;4921900;29;20977;-71
2023/11/13 03:44:01;;;;;;;3.63;2.93;;;8.90;99.90;;;;;;4927647;29;20516;-71
2023/11/13 03:46:27;;;;;;;4.70;2.57;;;8.90;99.90;;;;;;4928645;29;20304;-71
2023/11/13 03:48:52;;;;;;;2.93;2.63;;;9.00;99.90;;;;;;4927531;29;20232;-72
2023/11/13 03:51:18;;;;;;;4.57;2.70;;;9.10;99.90;;;;;;4923465;29;20186;-71
2023/11/13 03:53:43;;;;;;;5.30;2.00;;;9.10;99.90;;;;;;4925194;29;20177;-70
2023/11/13 03:56:09;;;;;;;2.90;1.90;;;9.20;99.90;;;;;;4933845;29;20190;-71
2023/11/13 03:58:35;;;;;;;3.10;2.23;;;9.20;99.90;;;;;;4921860;29;20181;-71
2023/11/13 04:01:00;;;;;;;4.23;2.43;;;9.20;99.90;;;;;;4924323;29;20218;-71
2023/11/13 04:03:26;;;;;;;5.60;2.60;;;9.20;99.90;;;;;;4924097;29;20186;-71
2023/11/13 04:05:51;;;;;;;3.87;2.70;;;9.20;99.90;;;;;;4919516;29;20585;-71
2023/11/13 04:08:17;;;;;;;5.33;2.43;;;9.30;99.90;;;;;;4926650;29;20182;-71
2023/11/13 04:10:42;;;;;;;3.43;2.00;;;9.30;99.90;;;;;;4919405;29;20198;-72
2023/11/13 04:13:11;;;;;;;3.93;2.23;;;9.30;99.90;;;;;;4920887;29;20650;-72
2023/11/13 04:15:37;;;;;;;3.60;2.30;;;9.30;99.90;;;;;;4924650;29;20677;-71
2023/11/13 04:18:03;;;;;;;4.17;2.60;;;9.30;99.90;;;;;;4922441;29;20520;-71
2023/11/13 04:20:28;;;;;;;7.27;2.53;;;9.30;99.90;;;;;;4925557;29;20205;-72
2023/11/13 04:22:55;;;;;;;4.73;2.67;;;9.30;99.90;;;;;;4918996;29;20434;-70
2023/11/13 04:25:20;;;;;;;3.23;2.47;;;9.30;99.90;;;;;;4929399;29;20681;-72
2023/11/13 04:27:46;;;;;;;6.40;3.40;;;9.30;99.90;;;;;;4908540;29;20546;-71
2023/11/13 04:30:11;;;;;;;7.67;2.90;;;9.30;99.90;;;;;;4902597;29;20206;-71
2023/11/13 04:32:37;;;;;;;7.63;3.37;;;9.30;99.90;;;;;;4908632;29;20585;-71
2023/11/13 04:35:03;;;;;;;4.23;2.87;;;9.30;99.90;;;;;;4898202;29;20175;-71
2023/11/13 04:37:29;;;;;;;4.40;2.90;;;9.30;99.90;;;;;;4907655;29;20201;-71
2023/11/13 04:39:54;;;;;;;8.27;5.60;;;9.20;99.90;;;;;;4905497;29;20194;-71
2023/11/13 04:42:20;;;;;;;5.20;4.17;;;9.30;99.90;;;;;;4925616;29;20514;-72
2023/11/13 04:44:45;;;;;;;4.77;3.60;;;9.30;99.90;;;;;;4903878;29;20193;-71
2023/11/13 04:47:11;;;;;;;6.50;3.50;;;9.30;99.90;;;;;;4910150;29;20250;-71
2023/11/13 04:49:36;;;;;;;8.87;3.07;;;9.30;99.90;;;;;;4903638;29;20206;-74
2023/11/13 04:52:02;;;;;;;7.57;3.23;;;9.30;99.90;;;;;;4902779;29;20711;-71
2023/11/13 04:54:28;;;;;;;7.17;3.10;;;9.30;99.90;;;;;;4908129;29;20178;-71
2023/11/13 04:56:55;;;;;;;5.10;3.47;;;9.30;99.90;;;;;;4914070;29;20187;-72
2023/11/13 04:59:21;;;;;;;3.30;2.83;;;9.30;99.90;;;;;;4914598;29;20194;-71
2023/11/13 05:01:46;;;;;;;3.67;3.03;;;9.30;99.90;;;;;;4910664;29;20455;-71
2023/11/13 05:04:12;;;;;;;4.03;2.27;;;9.30;99.90;;;;;;4905472;29;20583;-71
2023/11/13 05:06:38;;;;;;;3.27;2.93;;;9.30;99.90;;;;;;4897910;29;20202;-71
2023/11/13 05:09:04;;;;;;;7.63;3.60;;;9.30;99.90;;;;;;4906380;29;20199;-71
2023/11/13 05:11:30;;;;;;;8.20;3.30;;;9.30;99.90;;;;;;4905549;29;21059;-72
2023/11/13 05:13:55;;;;;;;7.30;4.80;;;9.40;99.90;;;;;;4910001;29;20941;-71
2023/11/13 05:16:26;;;;;;;10.40;3.73;;;9.40;99.90;;;;;;4896512;29;20557;-71
2023/11/13 05:18:52;;;;;;;12.17;4.60;;;9.30;99.90;;;;;;4896649;29;20612;-71
2023/11/13 05:21:19;;;;;;;9.80;4.13;;;9.30;99.90;;;;;;4902279;29;20864;-72
2023/11/13 05:23:46;;;;;;;8.17;3.73;;;9.40;99.90;;;;;;4901320;29;20470;-71
2023/11/13 05:26:11;;;;;;;8.80;4.53;;;9.40;99.90;;;;;;4896460;29;20462;-71
2023/11/13 05:28:37;;;;;;;9.10;4.40;;;9.40;99.90;;;;;;4918272;29;20828;-71
2023/11/13 05:31:02;;;;;;;14.70;4.37;;;9.40;99.90;;;;;;4905071;29;20631;-72
2023/11/13 05:33:28;;;;;;;11.70;4.07;;;9.40;99.90;;;;;;4907330;29;20630;-71
2023/11/13 05:35:54;;;;;;;14.00;4.30;;;9.40;99.90;;;;;;4907607;29;20291;-71
2023/11/13 05:38:19;;;;;;;21.23;5.33;;;9.40;99.90;;;;;;4903964;29;20257;-71
2023/11/13 05:40:45;;;;;;;18.50;5.37;;;9.40;99.90;;;;;;4899496;29;20237;-72
2023/11/13 05:43:11;;;;;;;13.17;5.47;;;9.40;99.90;;;;;;4913559;29;20550;-71
2023/11/13 05:45:37;;;;;;;9.80;4.60;;;9.50;99.90;;;;;;4927436;29;20553;-71
2023/11/13 05:48:06;;;;;;;19.27;5.40;;;9.50;99.90;;;;;;4905014;29;20642;-71
2023/11/13 05:50:32;;;;;;;21.70;5.10;;;9.50;99.90;;;;;;4911060;29;20198;-72
2023/11/13 05:52:58;;;;;;;15.67;4.77;;;9.50;99.90;;;;;;4907366;29;20504;-71
2023/11/13 05:55:23;;;;;;;9.87;4.80;;;9.50;99.90;;;;;;4908999;29;20183;-71
2023/11/13 05:57:50;;;;;;;16.90;5.70;;;9.50;99.90;;;;;;4906869;29;20930;-71
2023/11/13 06:00:18;;;;;;;18.03;5.80;;;9.50;99.90;;;;;;4915738;29;20209;-72
2023/11/13 06:02:44;;;;;;;16.33;5.10;;;9.50;99.90;;;;;;4918460;29;20441;-71
2023/11/13 06:05:10;;;;;;;14.00;4.83;;;9.60;99.90;;;;;;4928944;29;20436;-71
2023/11/13 06:07:38;;;;;;;17.00;5.50;;;9.60;99.90;;;;;;4913159;29;20447;-72
2023/11/13 06:10:07;;;;;;;17.03;4.90;;;9.60;99.90;;;;;;4912906;29;20220;-72
2023/11/13 06:12:33;;;;;;;9.10;4.70;;;9.60;99.90;;;;;;4911012;29;20429;-71
2023/11/13 06:14:59;;;;;;;17.03;5.87;;;9.60;99.90;;;;;;4909498;29;20796;-72
2023/11/13 06:17:25;;;;;;;11.37;4.83;;;9.60;99.90;;;;;;4909229;29;20430;-72
2023/11/13 06:19:51;;;;;;;11.93;5.20;;;9.60;99.90;;;;;;4910369;29;20623;-72
2023/11/13 06:22:17;;;;;;;28.67;5.93;;;9.60;99.90;;;;;;4923310;29;20960;-71
2023/11/13 06:24:43;;;;;;;22.33;7.80;;;9.60;99.90;;;;;;4905611;29;20434;-72
2023/11/13 06:27:09;;;;;;;13.97;5.47;;;9.60;99.90;;;;;;4914295;29;20214;-73
2023/11/13 06:29:35;;;;;;;14.80;4.93;;;9.60;99.90;;;;;;4910172;29;20198;-71
2023/11/13 06:32:01;;;;;;;13.80;6.03;;;9.60;99.90;;;;;;4899374;29;20475;-71
2023/11/13 06:34:28;;;;;;;16.03;5.13;;;9.60;99.90;;;;;;4927559;29;20656;-72
2023/11/13 06:36:54;;;;;;;16.40;5.43;;;9.60;99.90;;;;;;4905717;29;20469;-72
2023/11/13 06:39:19;;;;;;;22.37;5.20;;;9.50;99.90;;;;;;4910876;29;20463;-71
2023/11/13 06:41:45;;;;;;;17.63;6.53;;;9.60;99.90;;;;;;4909136;29;20230;-71
2023/11/13 06:44:11;;;;;;;15.00;4.90;;;9.60;99.90;;;;;;4907439;29;20215;-71
2023/11/13 06:46:37;;;;;;;8.67;4.33;;;9.60;99.90;;;;;;4909719;29;20242;-71
2023/11/13 06:49:03;;;;;;;18.53;5.30;;;9.60;99.90;;;;;;4901402;29;20981;-71
2023/11/13 06:51:30;;;;;;;13.30;5.47;;;9.60;99.90;;;;;;4923032;29;20433;-72
2023/11/13 06:53:56;;;;;;;11.00;4.50;;;9.60;99.90;;;;;;4909188;29;20957;-71
2023/11/13 06:56:21;;;;;;;6.67;4.00;;;9.60;99.90;;;;;;4898957;29;20471;-71
2023/11/13 06:58:49;;;;;;;16.20;4.23;;;9.70;99.90;;;;;;4903373;29;20288;-71
2023/11/13 07:01:14;;;;;;;12.80;4.73;;;9.70;99.90;;;;;;4917755;29;20174;-71
2023/11/13 07:03:40;;;;;;;13.00;5.23;;;9.70;99.90;;;;;;4917231;29;20496;-71
2023/11/13 07:06:10;;;;;;;9.47;5.40;;;9.70;99.90;;;;;;4917352;29;20205;-71
2023/11/13 07:08:36;;;;;;;18.20;5.60;;;9.70;99.90;;;;;;4914743;29;20174;-71
2023/11/13 07:11:02;;;;;;;10.00;4.10;;;9.70;99.90;;;;;;4898678;29;20958;-71
2023/11/13 07:13:29;;;;;;;10.77;5.10;;;9.70;99.90;;;;;;4898648;29;20423;-71
2023/11/13 07:15:55;;;;;;;14.03;4.60;;;9.70;99.90;;;;;;4898628;29;20462;-71
2023/11/13 07:18:21;;;;;;;15.80;4.40;;;9.80;99.90;;;;;;4898216;29;20458;-72
2023/11/13 07:20:46;;;;;;;12.20;5.60;;;9.70;99.90;;;;;;4912843;29;20483;-70
2023/11/13 07:23:16;;;;;;;12.60;4.10;;;9.80;99.90;;;;;;4898717;29;20207;-72
2023/11/13 07:25:44;;;;;;;9.37;4.60;;;9.80;99.90;;;;;;4898352;29;20195;-71
2023/11/13 07:28:10;;;;;;;15.60;4.10;;;9.80;99.90;;;;;;4897960;29;20439;-70
2023/11/13 07:30:37;;;;;;;11.97;4.13;;;9.80;99.90;;;;;;4909971;29;20454;-71
2023/11/13 07:33:03;;;;;;;9.13;4.37;;;9.80;99.90;;;;;;4906966;29;20433;-71
2023/11/13 07:35:29;;;;;;;15.53;4.90;;;9.70;99.90;;;;;;4918093;29;20441;-71
2023/11/13 07:37:55;;;;;;;13.30;4.50;;;9.80;99.90;;;;;;4919578;29;20827;-71
2023/11/13 07:40:20;;;;;;;7.47;4.50;;;9.70;99.90;;;;;;4915883;29;20345;-71
2023/11/13 07:42:47;;;;;;;7.93;3.27;;;9.80;99.90;;;;;;4927748;29;20186;-71
2023/11/13 07:45:13;;;;;;;10.80;4.77;;;9.80;99.90;;;;;;4935647;29;20661;-71
2023/11/13 07:47:39;;;;;;;10.57;4.40;;;9.70;99.90;;;;;;4935817;29;20413;-71
2023/11/13 07:50:11;;;;;;;14.20;4.50;;;9.80;99.90;;;;;;4921987;29;20465;-70
2023/11/13 07:52:38;;;;;;;9.50;4.07;;;9.80;99.90;;;;;;4917045;29;20441;-70
2023/11/13 07:55:04;;;;;;;13.00;4.50;;;9.80;99.90;;;;;;4916415;29;20425;-70
2023/11/13 07:57:29;;;;;;;11.30;4.80;;;9.80;99.90;;;;;;4915973;29;20781;-71
2023/11/13 07:59:55;;;;;;;10.87;4.00;;;9.80;99.90;;;;;;4903168;29;20502;-70
2023/11/13 08:02:21;;;;;;;13.60;5.43;;;9.80;99.90;;;;;;4895746;29;20258;-70
2023/11/13 08:04:47;;;;;;;8.50;4.20;;;9.70;99.90;;;;;;4895937;29;20214;-70
2023/11/13 08:07:13;;;;;;;12.37;5.23;;;9.70;99.90;;;;;;4895947;29;20970;-70
2023/11/13 08:09:39;;;;;;;11.50;4.77;;;9.70;99.90;;;;;;4896290;29;20222;-70
2023/11/13 08:12:05;;;;;;;5.83;4.10;;;9.70;99.90;;;;;;4896292;29;20185;-70
2023/11/13 08:14:31;;;;;;;12.43;6.00;;;9.70;99.90;;;;;;4896419;29;20805;-70
2023/11/13 08:16:57;;;;;;;13.23;4.80;;;9.60;99.90;;;;;;4896830;29;20541;-70
2023/11/13 08:19:24;;;;;;;15.27;4.97;;;9.60;99.90;;;;;;4897247;29;20194;-71
2023/11/13 08:21:49;;;;;;;10.70;4.00;;;9.60;99.90;;;;;;4897378;29;20186;-70
2023/11/13 08:24:19;;;;;;;8.43;4.60;;;9.60;99.90;;;;;;4897330;29;20423;-71
2023/11/13 08:26:46;;;;;;;10.23;3.57;;;9.60;99.90;;;;;;4905356;29;20269;-70
2023/11/13 08:29:15;;;;;;;11.80;5.30;;;9.60;99.90;;;;;;4916517;29;20946;-71
2023/11/13 08:31:44;;;;;;;12.27;4.97;;;9.60;99.90;;;;;;4915898;29;20425;-71
2023/11/13 08:34:10;;;;;;;6.90;3.97;;;9.50;99.90;;;;;;4915973;29;20437;-70
2023/11/13 08:36:35;;;;;;;9.33;3.70;;;9.50;99.90;;;;;;4915012;29;20426;-70
2023/11/13 08:39:01;;;;;;;6.20;3.63;;;9.50;99.90;;;;;;4915911;29;20194;-70
2023/11/13 08:41:28;;;;;;;9.40;3.87;;;9.50;99.90;;;;;;4928507;29;20180;-71
2023/11/13 08:43:55;;;;;;;7.47;2.70;;;9.50;99.90;;;;;;4934776;29;20457;-70
2023/11/13 08:46:21;;;;;;;6.20;3.50;;;9.60;99.90;;;;;;4929023;29;20450;-70
2023/11/13 08:48:47;;;;;;;7.10;3.53;;;9.50;99.90;;;;;;4915687;29;20453;-71
2023/11/13 08:51:14;;;;;;;5.53;3.20;;;9.60;99.90;;;;;;4915897;29;20423;-70
2023/11/13 08:53:42;;;;;;;6.40;3.20;;;9.60;99.90;;;;;;4912102;29;20175;-71
2023/11/13 08:56:15;;;;;;;7.57;4.40;;;9.60;99.90;;;;;;4896740;29;20945;-71
2023/11/13 08:58:41;;;;;;;7.10;3.10;;;9.50;99.90;;;;;;4896631;29;20515;-70
2023/11/13 09:01:07;;;;;;;6.43;3.77;;;9.50;99.90;;;;;;4896932;29;20479;-71
2023/11/13 09:03:33;;;;;;;11.63;3.43;;;9.50;99.90;;;;;;4896868;29;20427;-71
2023/11/13 09:05:59;;;;;;;15.73;3.40;;;9.50;99.90;;;;;;4903193;29;20633;-71
2023/11/13 09:08:24;;;;;;;9.40;3.10;;;9.50;99.90;;;;;;4915104;29;20534;-71
2023/11/13 09:10:50;;;;;;;4.10;2.77;;;9.60;99.90;;;;;;4915437;29;20181;-70
2023/11/13 09:13:16;;;;;;;7.17;3.53;;;9.60;99.90;;;;;;4915942;29;20186;-71
2023/11/13 09:15:41;;;;;;;11.83;4.37;;;9.60;99.90;;;;;;4915509;29;20988;-70
2023/11/13 09:18:09;;;;;;;8.03;3.70;;;9.60;99.90;;;;;;4897610;29;20239;-70
2023/11/13 09:20:41;;;;;;;9.07;4.23;;;9.60;99.90;;;;;;4896661;29;20194;-70
2023/11/13 09:23:09;;;;;;;5.70;2.87;;;9.70;99.90;;;;;;4896590;29;20427;-70
2023/11/13 09:25:34;;;;;;;7.93;4.23;;;9.70;99.90;;;;;;4896269;29;20575;-70
2023/11/13 09:28:00;;;;;;;12.40;3.30;;;9.70;99.90;;;;;;4898009;29;20573;-71
2023/11/13 09:30:26;;;;;;;8.07;3.83;;;9.80;99.90;;;;;;4900311;29;20191;-71
2023/11/13 09:32:53;;;;;;;15.37;3.90;;;9.80;99.90;;;;;;4900424;29;20228;-70
2023/11/13 09:35:26;;;;;;;6.07;3.70;;;9.90;99.90;;;;;;4900185;29;20427;-71
2023/11/13 09:37:54;;;;;;;9.50;4.07;;;9.90;99.90;;;;;;4899604;29;20429;-71
2023/11/13 09:40:23;;;;;;;3.40;3.10;;;10.00;99.90;;;;;;4899780;29;20458;-70
2023/11/13 09:42:52;;;;;;;6.37;3.03;;;10.10;99.90;;;;;;4900149;29;20426;-70
2023/11/13 09:45:19;;;;;;;3.80;3.40;;;10.20;99.90;;;;;;4910476;29;20433;-70
2023/11/13 09:47:45;;;;;;;7.37;3.40;;;10.30;99.90;;;;;;4918575;29;20478;-71
2023/11/13 09:50:15;;;;;;;9.37;3.90;;;10.40;99.90;;;;;;4918714;29;20434;-71
2023/11/13 09:52:55;;;;;;;8.87;5.30;;;10.50;99.90;;;;;;4918778;29;20509;-70
2023/11/13 09:55:23;;;;;;;11.53;5.00;;;10.60;99.90;;;;;;4918353;29;20426;-71
2023/11/13 09:57:53;;;;;;;8.90;3.07;;;10.70;99.90;;;;;;4918493;29;20800;-71
2023/11/13 10:00:23;;;;;;;4.77;3.50;;;10.70;99.90;;;;;;4933178;29;21044;-71
2023/11/13 10:02:50;;;;;;;8.57;3.37;;;10.70;99.90;;;;;;4898089;29;20506;-71
2023/11/13 10:05:17;;;;;;;5.87;2.97;;;10.80;99.90;;;;;;4906864;29;20458;-71
2023/11/13 10:07:47;;;;;;;4.23;2.93;;;10.80;99.90;;;;;;4917954;29;20422;-71
2023/11/13 10:10:21;;;;;;;3.20;2.80;;;10.90;99.90;;;;;;4918441;29;20450;-71
2023/11/13 10:12:51;;;;;;;5.40;4.90;;;10.90;99.90;;;;;;4918742;29;20422;-71
2023/11/13 10:15:27;;;;;;;8.23;3.50;;;11.00;99.90;;;;;;4909080;29;20434;-71
2023/11/13 10:17:54;;;;;;;11.17;3.57;;;11.00;99.90;;;;;;4899617;29;20823;-71
2023/11/13 10:20:20;;;;;;;5.70;3.17;;;11.10;99.90;;;;;;4899404;29;20467;-70
2023/11/13 10:23:00;;;;;;;4.53;3.50;;;11.10;99.90;;;;;;4899541;29;20419;-71
2023/11/13 10:25:27;;;;;;;4.47;3.33;;;11.20;99.90;;;;;;4909260;29;20430;-70
2023/11/13 10:28:01;;;;;;;7.80;4.83;;;11.30;99.90;;;;;;4918027;29;20455;-70
2023/11/13 10:30:30;;;;;;;4.57;2.90;;;11.30;99.90;;;;;;4917963;29;20445;-70
2023/11/13 10:32:57;;;;;;;5.47;2.97;;;11.30;99.90;;;;;;4918240;29;20505;-70
2023/11/13 10:35:27;;;;;;;7.53;3.13;;;11.40;99.90;;;;;;4908667;29;20947;-70
2023/11/13 10:37:56;;;;;;;2.70;2.37;;;11.40;99.90;;;;;;4903450;29;20437;-70
2023/11/13 10:40:28;;;;;;;8.20;3.00;;;11.50;99.90;;;;;;4917886;29;20453;-71
2023/11/13 10:42:54;;;;;;;6.57;3.07;;;11.50;99.90;;;;;;4932489;29;20792;-70
2023/11/13 10:45:20;;;;;;;4.17;2.87;;;11.60;99.90;;;;;;4913228;29;20433;-70
2023/11/13 10:47:49;;;;;;;4.80;3.40;;;11.60;99.90;;;;;;4917359;29;20225;-70
2023/11/13 10:50:19;;;;;;;5.73;2.53;;;11.70;99.90;;;;;;4917857;29;20198;-71
2023/11/13 10:52:47;;;;;;;8.10;3.90;;;11.80;99.90;;;;;;4917841;29;20894;-71
2023/11/13 10:55:15;;;;;;;6.93;3.40;;;11.80;99.90;;;;;;4910874;29;20434;-70
2023/11/13 10:57:41;;;;;;;10.27;3.60;;;11.90;99.90;;;;;;4899970;29;20478;-70
2023/11/13 11:00:12;;;;;;;7.13;3.07;;;11.90;99.90;;;;;;4916155;29;20544;-68
2023/11/13 11:02:45;;;;;;;6.97;4.57;;;12.00;99.90;;;;;;4904275;29;20466;-68
2023/11/13 11:05:22;;;;;;;6.67;4.13;;;12.10;99.90;;;;;;4907309;29;20805;-71
2023/11/13 11:07:55;;;;;;;7.63;3.70;;;12.10;99.90;;;;;;4913676;29;20980;-73
2023/11/13 11:10:25;;;;;;;8.80;3.77;;;12.10;99.90;;;;;;4898494;29;20507;-73
2023/11/13 11:13:09;;;;;;;7.73;3.30;;;12.10;99.90;;;;;;4898538;29;20438;-73
2023/11/13 11:15:53;;;;;;;7.97;3.40;;;12.10;99.90;;;;;;4907047;29;20441;-72
2023/11/13 11:18:42;;;;;;;6.70;3.17;;;12.10;99.90;;;;;;4907225;29;20475;-70
2023/11/13 11:21:07;;;;;;;7.83;3.87;;;12.20;99.90;;;;;;4898436;29;20845;-70
2023/11/13 11:23:54;;;;;;;4.40;3.50;;;12.20;99.90;;;;;;4897267;29;20431;-70
2023/11/13 11:26:19;;;;;;;6.67;3.43;;;12.20;99.90;;;;;;4912119;29;20202;-70
2023/11/13 11:28:49;;;;;;;6.53;3.50;;;12.20;99.90;;;;;;4916604;29;20517;-70
2023/11/13 11:31:30;;;;;;;5.50;3.50;;;12.20;99.90;;;;;;4917233;29;20647;-70
2023/11/13 11:33:56;;;;;;;7.17;3.10;;;12.30;99.90;;;;;;4916940;29;20807;-71
2023/11/13 11:36:24;;;;;;;9.23;3.93;;;12.30;99.90;;;;;;4902377;29;21001;-71
2023/11/13 11:39:21;;;;;;;9.20;3.67;;;12.40;99.90;;;;;;4912702;29;20454;-71
2023/11/13 11:41:51;;;;;;;3.20;2.50;;;12.40;99.90;;;;;;4916903;29;20437;-71
2023/11/13 11:44:17;;;;;;;4.20;3.23;;;12.40;99.90;;;;;;4916856;29;20965;-70
2023/11/13 11:46:46;;;;;;;3.80;3.20;;;12.40;99.90;;;;;;4915771;29;20993;-71
2023/11/13 11:49:19;;;;;;;9.73;3.17;;;12.40;99.90;;;;;;4922126;29;20444;-71
2023/11/13 11:51:44;;;;;;;3.97;3.03;;;12.40;99.90;;;;;;4935154;29;20521;-72
2023/11/13 11:54:13;;;;;;;5.90;3.57;;;12.40;99.90;;;;;;4935611;29;20877;-72
2023/11/13 11:56:51;;;;;;;9.03;3.60;;;12.50;99.90;;;;;;4907405;29;20194;-71
2023/11/13 11:59:16;;;;;;;5.93;3.30;;;12.50;99.90;;;;;;4915589;29;20470;-71
2023/11/13 12:01:42;;;;;;;6.27;3.77;;;12.50;99.90;;;;;;4915490;29;20523;-72
2023/11/13 12:04:07;;;;;;;11.33;3.83;;;12.50;99.90;;;;;;4902078;29;20238;-71
2023/11/13 12:06:33;;;;;;;5.33;3.93;;;12.50;99.90;;;;;;4896291;29;20215;-72
2023/11/13 12:08:59;;;;;;;5.27;3.90;;;12.50;99.90;;;;;;4897628;29;20226;-72
2023/11/13 12:11:24;;;;;;;9.60;4.47;;;12.50;99.90;;;;;;4897536;29;20219;-71
2023/11/13 12:13:50;;;;;;;11.00;5.30;;;12.50;99.90;;;;;;4908416;29;20176;-71
2023/11/13 12:16:15;;;;;;;6.40;4.07;;;12.50;99.90;;;;;;4916332;29;20245;-71
2023/11/13 12:18:42;;;;;;;6.30;4.20;;;12.60;99.90;;;;;;4913875;29;20210;-71
2023/11/13 12:21:08;;;;;;;9.33;3.60;;;12.60;99.90;;;;;;4900443;29;20206;-72
2023/11/13 12:23:34;;;;;;;6.87;3.70;;;12.60;99.90;;;;;;4897419;29;20958;-72
2023/11/13 12:26:00;;;;;;;5.67;4.23;;;12.60;99.90;;;;;;4897228;29;20467;-71
2023/11/13 12:28:25;;;;;;;6.87;3.47;;;12.60;99.90;;;;;;4896991;29;20194;-71
2023/11/13 12:30:51;;;;;;;8.80;3.97;;;12.70;99.90;;;;;;4914169;29;20186;-71
2023/11/13 12:33:17;;;;;;;7.70;4.20;;;12.70;99.90;;;;;;4916291;29;20170;-71
2023/11/13 12:35:43;;;;;;;5.80;4.10;;;12.70;99.90;;;;;;4916182;29;20181;-72
2023/11/13 12:38:08;;;;;;;10.27;5.77;;;12.70;99.90;;;;;;4915819;29;20418;-71
2023/11/13 12:40:35;;;;;;;6.80;4.37;;;12.70;99.90;;;;;;4902123;29;20205;-72
2023/11/13 12:43:00;;;;;;;7.70;3.73;;;12.70;99.90;;;;;;4897196;29;20175;-72
2023/11/13 12:45:26;;;;;;;7.60;5.50;;;12.80;99.90;;;;;;4897038;29;20434;-72
2023/11/13 12:48:00;;;;;;;4.90;3.80;;;12.80;99.90;;;;;;4896761;29;20167;-71
2023/11/13 12:50:26;;;;;;;4.87;3.80;;;12.80;99.90;;;;;;4909326;29;20209;-71
2023/11/13 12:52:54;;;;;;;4.67;2.80;;;12.80;99.90;;;;;;4915953;29;20509;-71
2023/11/13 12:55:21;;;;;;;5.93;3.33;;;12.80;99.90;;;;;;4915946;29;20447;-71
2023/11/13 12:57:51;;;;;;;6.10;3.47;;;12.80;99.90;;;;;;4911476;29;21023;-72
2023/11/13 13:00:20;;;;;;;5.03;3.87;;;12.80;99.90;;;;;;4896821;29;20450;-72
2023/11/13 13:02:49;;;;;;;3.83;3.00;;;12.80;99.90;;;;;;4896820;29;20427;-72
2023/11/13 13:05:18;;;;;;;6.00;3.30;;;12.80;99.90;;;;;;4896849;29;20434;-71
2023/11/13 13:07:44;;;;;;;7.77;3.07;;;12.80;99.90;;;;;;4899383;29;20489;-71
2023/11/13 13:10:13;;;;;;;4.40;3.40;;;12.90;99.90;;;;;;4915671;29;20454;-71
2023/11/13 13:12:43;;;;;;;4.97;4.00;;;12.90;99.90;;;;;;4915649;29;20418;-71
2023/11/13 13:15:09;;;;;;;6.37;3.40;;;12.90;99.90;;;;;;4915702;29;20462;-70
2023/11/13 13:17:38;;;;;;;3.13;2.70;;;12.90;99.90;;;;;;4913195;29;20424;-72
2023/11/13 13:20:06;;;;;;;7.30;3.30;;;12.90;99.90;;;;;;4896593;29;20459;-72
2023/11/13 13:22:31;;;;;;;7.40;3.67;;;13.00;99.90;;;;;;4896703;29;20426;-71
2023/11/13 13:24:57;;;;;;;4.23;2.57;;;13.00;99.90;;;;;;4896668;29;20430;-71
2023/11/13 13:27:22;;;;;;;3.50;2.87;;;13.00;99.90;;;;;;4896094;29;20325;-72
2023/11/13 13:29:48;;;;;;;4.17;2.53;;;13.00;99.90;;;;;;4930236;29;20205;-71
2023/11/13 13:32:15;;;;;;;2.87;1.90;;;13.10;99.90;;;;;;4915558;29;20178;-71
2023/11/13 13:34:42;;;;;;;3.53;1.97;;;13.00;99.90;;;;;;4915477;29;20423;-70
2023/11/13 13:37:07;;;;;;;2.50;2.17;;;13.10;99.90;;;;;;4915187;29;20422;-71